sensor_id;sensor_type;location;lat;lon;timestamp;temperature;humidity
59556;DHT22;45374;52.746;6.304;2023-03-13T00:01:39;8.70;99.90
59556;DHT22;45374;52.746;6.304;2023-03-13T00:04:06;8.60;99.90
59556;DHT22;45374;52.746;6.304;2023-03-13T00:06:36;8.70;99.90
59556;DHT22;45374;52.746;6.304;2023-03-13T00:09:05;8.70;99.90
59556;DHT22;45374;52.746;6.304;2023-03-13T00:11:31;8.60;99.90
59556;DHT22;45374;52.746;6.304;2023-03-13T00:13:59;8.50;99.90
59556;DHT22;45374;52.746;6.304;2023-03-13T00:16:26;8.60;99.90
59556;DHT22;45374;52.746;6.304;2023-03-13T00:18:53;8.40;99.90
59556;DHT22;45374;52.746;6.304;2023-03-13T00:21:21;8.40;99.90
59556;DHT22;45374;52.746;6.304;2023-03-13T00:23:47;8.60;99.90
59556;DHT22;45374;52.746;6.304;2023-03-13T00:26:18;8.40;99.90
59556;DHT22;45374;52.746;6.304;2023-03-13T00:28:44;8.50;99.90
59556;DHT22;45374;52.746;6.304;2023-03-13T00:31:12;8.60;99.90
59556;DHT22;45374;52.746;6.304;2023-03-13T00:33:40;8.40;99.90
59556;DHT22;45374;52.746;6.304;2023-03-13T00:36:11;8.60;99.90
59556;DHT22;45374;52.746;6.304;2023-03-13T00:38:37;8.50;99.90
59556;DHT22;45374;52.746;6.304;2023-03-13T00:41:09;8.50;99.90
59556;DHT22;45374;52.746;6.304;2023-03-13T00:43:38;8.60;99.90
59556;DHT22;45374;52.746;6.304;2023-03-13T00:46:05;8.40;99.90
59556;DHT22;45374;52.746;6.304;2023-03-13T00:48:31;8.60;99.90
59556;DHT22;45374;52.746;6.304;2023-03-13T00:50:58;8.60;99.90
59556;DHT22;45374;52.746;6.304;2023-03-13T00:53:23;8.40;99.90
59556;DHT22;45374;52.746;6.304;2023-03-13T00:58:18;8.60;99.90
59556;DHT22;45374;52.746;6.304;2023-03-13T01:00:43;8.60;99.90
59556;DHT22;45374;52.746;6.304;2023-03-13T01:03:13;8.50;99.90
59556;DHT22;45374;52.746;6.304;2023-03-13T01:05:38;8.40;99.90
59556;DHT22;45374;52.746;6.304;2023-03-13T01:08:04;8.40;99.90
59556;DHT22;45374;52.746;6.304;2023-03-13T01:10:30;8.40;99.90
59556;DHT22;45374;52.746;6.304;2023-03-13T01:12:55;8.40;99.90
59556;DHT22;45374;52.746;6.304;2023-03-13T01:15:21;8.40;99.90
59556;DHT22;45374;52.746;6.304;2023-03-13T01:17:46;8.40;99.90
59556;DHT22;45374;52.746;6.304;2023-03-13T01:20:12;8.60;99.90
59556;DHT22;45374;52.746;6.304;2023-03-13T01:22:39;8.50;99.90
59556;DHT22;45374;52.746;6.304;2023-03-13T01:25:05;8.60;99.90
59556;DHT22;45374;52.746;6.304;2023-03-13T01:27:30;8.40;99.90
59556;DHT22;45374;52.746;6.304;2023-03-13T01:29:56;8.50;99.90
59556;DHT22;45374;52.746;6.304;2023-03-13T01:32:21;8.40;99.90
59556;DHT22;45374;52.746;6.304;2023-03-13T01:34:47;8.60;99.90
59556;DHT22;45374;52.746;6.304;2023-03-13T01:37:13;8.60;99.90
59556;DHT22;45374;52.746;6.304;2023-03-13T01:39:38;8.50;99.90
59556;DHT22;45374;52.746;6.304;2023-03-13T01:42:04;8.50;99.90
59556;DHT22;45374;52.746;6.304;2023-03-13T01:44:56;8.60;99.90
59556;DHT22;45374;52.746;6.304;2023-03-13T01:47:22;8.60;99.90
59556;DHT22;45374;52.746;6.304;2023-03-13T01:49:49;8.70;99.90
59556;DHT22;45374;52.746;6.304;2023-03-13T01:54:50;8.70;99.90
59556;DHT22;45374;52.746;6.304;2023-03-13T01:57:41;8.70;99.90
59556;DHT22;45374;52.746;6.304;2023-03-13T02:00:22;8.70;99.90
59556;DHT22;45374;52.746;6.304;2023-03-13T02:02:51;8.50;99.90
59556;DHT22;45374;52.746;6.304;2023-03-13T02:05:20;8.70;99.90
59556;DHT22;45374;52.746;6.304;2023-03-13T02:10:17;8.80;99.90
59556;DHT22;45374;52.746;6.304;2023-03-13T02:12:43;8.60;99.90
59556;DHT22;45374;52.746;6.304;2023-03-13T02:15:16;8.50;99.90
59556;DHT22;45374;52.746;6.304;2023-03-13T02:17:44;8.70;99.90
59556;DHT22;45374;52.746;6.304;2023-03-13T02:20:12;8.80;99.90
59556;DHT22;45374;52.746;6.304;2023-03-13T02:22:41;8.60;99.90
59556;DHT22;45374;52.746;6.304;2023-03-13T02:28:10;8.60;99.90
59556;DHT22;45374;52.746;6.304;2023-03-13T02:30:37;8.70;99.90
59556;DHT22;45374;52.746;6.304;2023-03-13T02:33:04;8.80;99.90
59556;DHT22;45374;52.746;6.304;2023-03-13T02:35:30;8.60;99.90
59556;DHT22;45374;52.746;6.304;2023-03-13T02:38:03;8.80;99.90
59556;DHT22;45374;52.746;6.304;2023-03-13T02:40:31;8.70;99.90
59556;DHT22;45374;52.746;6.304;2023-03-13T02:43:00;8.80;99.90
59556;DHT22;45374;52.746;6.304;2023-03-13T02:46:03;8.70;99.90
59556;DHT22;45374;52.746;6.304;2023-03-13T02:48:41;8.90;99.90
59556;DHT22;45374;52.746;6.304;2023-03-13T02:51:30;8.90;99.90
59556;DHT22;45374;52.746;6.304;2023-03-13T02:54:00;8.90;99.90
59556;DHT22;45374;52.746;6.304;2023-03-13T02:56:28;8.80;99.90
59556;DHT22;45374;52.746;6.304;2023-03-13T02:58:55;8.80;99.90
59556;DHT22;45374;52.746;6.304;2023-03-13T03:01:22;9.10;99.90
59556;DHT22;45374;52.746;6.304;2023-03-13T03:03:47;8.90;99.90
59556;DHT22;45374;52.746;6.304;2023-03-13T03:06:13;8.90;99.90
59556;DHT22;45374;52.746;6.304;2023-03-13T03:08:39;9.20;99.90
59556;DHT22;45374;52.746;6.304;2023-03-13T03:11:06;9.20;99.90
59556;DHT22;45374;52.746;6.304;2023-03-13T03:13:31;9.00;99.90
59556;DHT22;45374;52.746;6.304;2023-03-13T03:15:57;9.00;99.90
59556;DHT22;45374;52.746;6.304;2023-03-13T03:18:29;9.30;99.90
59556;DHT22;45374;52.746;6.304;2023-03-13T03:20:55;9.10;99.90
59556;DHT22;45374;52.746;6.304;2023-03-13T03:23:20;9.30;99.90
59556;DHT22;45374;52.746;6.304;2023-03-13T03:25:47;9.40;99.90
59556;DHT22;45374;52.746;6.304;2023-03-13T03:28:12;9.20;99.90
59556;DHT22;45374;52.746;6.304;2023-03-13T03:30:38;9.40;99.90
59556;DHT22;45374;52.746;6.304;2023-03-13T03:33:03;9.20;99.90
59556;DHT22;45374;52.746;6.304;2023-03-13T03:35:29;9.40;99.90
59556;DHT22;45374;52.746;6.304;2023-03-13T03:37:55;9.50;99.90
59556;DHT22;45374;52.746;6.304;2023-03-13T03:40:20;9.20;99.90
59556;DHT22;45374;52.746;6.304;2023-03-13T03:42:46;9.40;99.90
59556;DHT22;45374;52.746;6.304;2023-03-13T03:45:12;9.60;99.90
59556;DHT22;45374;52.746;6.304;2023-03-13T03:47:37;9.40;99.90
59556;DHT22;45374;52.746;6.304;2023-03-13T03:50:03;9.40;99.90
59556;DHT22;45374;52.746;6.304;2023-03-13T03:52:29;9.60;99.90
59556;DHT22;45374;52.746;6.304;2023-03-13T03:54:54;9.90;99.90
59556;DHT22;45374;52.746;6.304;2023-03-13T03:57:20;9.80;99.90
59556;DHT22;45374;52.746;6.304;2023-03-13T03:59:45;10.00;99.90
59556;DHT22;45374;52.746;6.304;2023-03-13T04:02:11;10.10;99.90
59556;DHT22;45374;52.746;6.304;2023-03-13T04:04:36;9.90;99.90
59556;DHT22;45374;52.746;6.304;2023-03-13T04:07:02;10.10;99.90
59556;DHT22;45374;52.746;6.304;2023-03-13T04:09:27;10.30;99.90
59556;DHT22;45374;52.746;6.304;2023-03-13T04:11:53;10.00;99.90
59556;DHT22;45374;52.746;6.304;2023-03-13T04:14:18;10.40;99.90
59556;DHT22;45374;52.746;6.304;2023-03-13T04:16:44;10.40;99.90
59556;DHT22;45374;52.746;6.304;2023-03-13T04:19:10;10.40;99.90
59556;DHT22;45374;52.746;6.304;2023-03-13T04:21:35;10.20;99.90
59556;DHT22;45374;52.746;6.304;2023-03-13T04:24:01;10.30;99.90
59556;DHT22;45374;52.746;6.304;2023-03-13T04:26:26;10.50;99.90
59556;DHT22;45374;52.746;6.304;2023-03-13T04:28:52;10.50;99.90
59556;DHT22;45374;52.746;6.304;2023-03-13T04:31:17;10.50;99.90
59556;DHT22;45374;52.746;6.304;2023-03-13T04:33:43;10.50;99.90
59556;DHT22;45374;52.746;6.304;2023-03-13T04:36:09;10.60;99.90
59556;DHT22;45374;52.746;6.304;2023-03-13T04:38:34;10.90;99.90
59556;DHT22;45374;52.746;6.304;2023-03-13T04:40:59;10.70;99.90
59556;DHT22;45374;52.746;6.304;2023-03-13T04:43:25;11.00;99.90
59556;DHT22;45374;52.746;6.304;2023-03-13T04:45:51;11.10;99.90
59556;DHT22;45374;52.746;6.304;2023-03-13T04:48:19;11.00;99.90
59556;DHT22;45374;52.746;6.304;2023-03-13T04:50:46;11.00;99.90
59556;DHT22;45374;52.746;6.304;2023-03-13T04:53:13;11.00;99.90
59556;DHT22;45374;52.746;6.304;2023-03-13T04:55:38;10.90;99.90
59556;DHT22;45374;52.746;6.304;2023-03-13T04:58:04;10.90;99.90
59556;DHT22;45374;52.746;6.304;2023-03-13T05:00:29;10.90;99.90
59556;DHT22;45374;52.746;6.304;2023-03-13T05:02:55;11.00;99.90
59556;DHT22;45374;52.746;6.304;2023-03-13T05:05:20;11.10;99.90
59556;DHT22;45374;52.746;6.304;2023-03-13T05:07:46;11.00;99.90
59556;DHT22;45374;52.746;6.304;2023-03-13T05:10:12;11.10;99.90
59556;DHT22;45374;52.746;6.304;2023-03-13T05:12:37;11.30;99.90
59556;DHT22;45374;52.746;6.304;2023-03-13T05:15:03;11.20;99.90
59556;DHT22;45374;52.746;6.304;2023-03-13T05:17:28;11.40;99.90
59556;DHT22;45374;52.746;6.304;2023-03-13T05:19:54;11.10;99.90
59556;DHT22;45374;52.746;6.304;2023-03-13T05:22:19;11.40;99.90
59556;DHT22;45374;52.746;6.304;2023-03-13T05:24:45;11.30;99.90
59556;DHT22;45374;52.746;6.304;2023-03-13T05:27:11;11.50;99.90
59556;DHT22;45374;52.746;6.304;2023-03-13T05:29:36;11.40;99.90
59556;DHT22;45374;52.746;6.304;2023-03-13T05:32:02;11.40;99.90
59556;DHT22;45374;52.746;6.304;2023-03-13T05:34:27;11.10;99.90
59556;DHT22;45374;52.746;6.304;2023-03-13T05:36:53;11.20;99.90
59556;DHT22;45374;52.746;6.304;2023-03-13T05:39:18;11.50;99.90
59556;DHT22;45374;52.746;6.304;2023-03-13T05:41:44;11.40;99.90
59556;DHT22;45374;52.746;6.304;2023-03-13T05:44:09;11.10;99.90
59556;DHT22;45374;52.746;6.304;2023-03-13T05:46:35;11.30;99.90
59556;DHT22;45374;52.746;6.304;2023-03-13T05:49:00;11.10;99.90
59556;DHT22;45374;52.746;6.304;2023-03-13T05:51:26;11.40;99.90
59556;DHT22;45374;52.746;6.304;2023-03-13T05:53:51;11.60;99.90
59556;DHT22;45374;52.746;6.304;2023-03-13T05:56:17;11.50;99.90
59556;DHT22;45374;52.746;6.304;2023-03-13T05:58:44;11.20;99.90
59556;DHT22;45374;52.746;6.304;2023-03-13T06:01:11;11.60;99.90
59556;DHT22;45374;52.746;6.304;2023-03-13T06:03:37;11.60;99.90
59556;DHT22;45374;52.746;6.304;2023-03-13T06:06:05;11.40;99.90
59556;DHT22;45374;52.746;6.304;2023-03-13T06:08:35;11.60;99.90
59556;DHT22;45374;52.746;6.304;2023-03-13T06:11:01;11.50;99.90
59556;DHT22;45374;52.746;6.304;2023-03-13T06:13:28;11.50;99.90
59556;DHT22;45374;52.746;6.304;2023-03-13T06:15:55;11.80;99.90
59556;DHT22;45374;52.746;6.304;2023-03-13T06:18:22;11.80;99.90
59556;DHT22;45374;52.746;6.304;2023-03-13T06:20:49;11.90;99.90
59556;DHT22;45374;52.746;6.304;2023-03-13T06:23:15;11.90;99.90
59556;DHT22;45374;52.746;6.304;2023-03-13T06:25:41;11.90;99.90
59556;DHT22;45374;52.746;6.304;2023-03-13T06:28:07;11.90;99.90
59556;DHT22;45374;52.746;6.304;2023-03-13T06:30:33;11.90;99.90
59556;DHT22;45374;52.746;6.304;2023-03-13T06:32:59;12.00;99.90
59556;DHT22;45374;52.746;6.304;2023-03-13T06:35:24;11.80;99.90
59556;DHT22;45374;52.746;6.304;2023-03-13T06:37:50;12.00;99.90
59556;DHT22;45374;52.746;6.304;2023-03-13T06:40:15;12.00;99.90
59556;DHT22;45374;52.746;6.304;2023-03-13T06:42:41;11.90;99.90
59556;DHT22;45374;52.746;6.304;2023-03-13T06:45:08;11.90;99.90
59556;DHT22;45374;52.746;6.304;2023-03-13T06:47:33;12.00;99.90
59556;DHT22;45374;52.746;6.304;2023-03-13T06:49:59;12.00;99.90
59556;DHT22;45374;52.746;6.304;2023-03-13T06:52:24;12.00;99.90
59556;DHT22;45374;52.746;6.304;2023-03-13T06:54:50;12.00;99.90
59556;DHT22;45374;52.746;6.304;2023-03-13T06:57:15;12.00;99.90
59556;DHT22;45374;52.746;6.304;2023-03-13T06:59:41;12.00;99.90
59556;DHT22;45374;52.746;6.304;2023-03-13T07:02:10;12.00;99.90
59556;DHT22;45374;52.746;6.304;2023-03-13T07:04:35;12.00;99.90
59556;DHT22;45374;52.746;6.304;2023-03-13T07:07:01;12.10;99.90
59556;DHT22;45374;52.746;6.304;2023-03-13T07:09:27;12.10;99.90
59556;DHT22;45374;52.746;6.304;2023-03-13T07:11:52;12.20;99.90
59556;DHT22;45374;52.746;6.304;2023-03-13T07:14:18;12.10;99.90
59556;DHT22;45374;52.746;6.304;2023-03-13T07:16:44;12.20;99.90
59556;DHT22;45374;52.746;6.304;2023-03-13T07:19:10;12.20;99.90
59556;DHT22;45374;52.746;6.304;2023-03-13T07:21:35;12.20;99.90
59556;DHT22;45374;52.746;6.304;2023-03-13T07:24:01;12.30;99.90
59556;DHT22;45374;52.746;6.304;2023-03-13T07:26:27;12.30;99.90
59556;DHT22;45374;52.746;6.304;2023-03-13T07:28:52;12.30;99.90
59556;DHT22;45374;52.746;6.304;2023-03-13T07:31:20;12.30;99.90
59556;DHT22;45374;52.746;6.304;2023-03-13T07:33:48;12.30;99.90
59556;DHT22;45374;52.746;6.304;2023-03-13T07:36:16;12.30;99.90
59556;DHT22;45374;52.746;6.304;2023-03-13T07:38:42;12.30;99.90
59556;DHT22;45374;52.746;6.304;2023-03-13T07:41:11;12.40;99.90
59556;DHT22;45374;52.746;6.304;2023-03-13T07:43:37;12.30;99.90
59556;DHT22;45374;52.746;6.304;2023-03-13T07:46:04;12.30;99.90
59556;DHT22;45374;52.746;6.304;2023-03-13T07:48:34;12.30;99.90
59556;DHT22;45374;52.746;6.304;2023-03-13T07:51:00;12.20;99.90
59556;DHT22;45374;52.746;6.304;2023-03-13T07:53:27;12.20;99.90
59556;DHT22;45374;52.746;6.304;2023-03-13T07:56:00;12.10;99.90
59556;DHT22;45374;52.746;6.304;2023-03-13T07:58:30;12.10;99.90
59556;DHT22;45374;52.746;6.304;2023-03-13T08:00:56;12.10;99.90
59556;DHT22;45374;52.746;6.304;2023-03-13T08:03:22;12.00;99.90
59556;DHT22;45374;52.746;6.304;2023-03-13T08:06:09;11.90;99.90
59556;DHT22;45374;52.746;6.304;2023-03-13T08:08:35;11.70;99.90
59556;DHT22;45374;52.746;6.304;2023-03-13T08:11:15;11.80;99.90
59556;DHT22;45374;52.746;6.304;2023-03-13T08:13:42;11.90;99.90
59556;DHT22;45374;52.746;6.304;2023-03-13T08:16:16;12.00;99.90
59556;DHT22;45374;52.746;6.304;2023-03-13T08:18:43;11.90;99.90
59556;DHT22;45374;52.746;6.304;2023-03-13T08:21:14;12.10;99.90
59556;DHT22;45374;52.746;6.304;2023-03-13T08:23:40;11.90;99.90
59556;DHT22;45374;52.746;6.304;2023-03-13T08:26:11;12.10;99.90
59556;DHT22;45374;52.746;6.304;2023-03-13T08:28:37;12.10;99.90
59556;DHT22;45374;52.746;6.304;2023-03-13T08:31:08;12.00;99.90
59556;DHT22;45374;52.746;6.304;2023-03-13T08:33:34;12.00;99.90
59556;DHT22;45374;52.746;6.304;2023-03-13T08:38:41;12.10;99.90
59556;DHT22;45374;52.746;6.304;2023-03-13T08:41:09;12.00;99.90
59556;DHT22;45374;52.746;6.304;2023-03-13T08:43:34;12.00;99.90
59556;DHT22;45374;52.746;6.304;2023-03-13T08:46:00;12.20;99.90
59556;DHT22;45374;52.746;6.304;2023-03-13T08:48:25;12.20;99.90
59556;DHT22;45374;52.746;6.304;2023-03-13T08:53:29;12.60;99.90
59556;DHT22;45374;52.746;6.304;2023-03-13T08:55:55;12.60;99.90
59556;DHT22;45374;52.746;6.304;2023-03-13T08:58:20;12.60;99.90
59556;DHT22;45374;52.746;6.304;2023-03-13T09:00:46;12.70;99.90
59556;DHT22;45374;52.746;6.304;2023-03-13T09:03:11;12.70;99.90
59556;DHT22;45374;52.746;6.304;2023-03-13T09:05:37;12.70;99.90
59556;DHT22;45374;52.746;6.304;2023-03-13T09:08:03;12.60;99.90
59556;DHT22;45374;52.746;6.304;2023-03-13T09:10:31;12.50;99.90
59556;DHT22;45374;52.746;6.304;2023-03-13T09:12:57;12.60;99.90
59556;DHT22;45374;52.746;6.304;2023-03-13T09:15:25;12.60;99.90
59556;DHT22;45374;52.746;6.304;2023-03-13T09:17:51;12.50;99.90
59556;DHT22;45374;52.746;6.304;2023-03-13T09:20:16;12.50;99.90
59556;DHT22;45374;52.746;6.304;2023-03-13T09:22:44;12.50;99.90
59556;DHT22;45374;52.746;6.304;2023-03-13T09:25:10;12.50;99.90
59556;DHT22;45374;52.746;6.304;2023-03-13T09:27:35;12.50;99.90
59556;DHT22;45374;52.746;6.304;2023-03-13T09:30:01;12.50;99.90
59556;DHT22;45374;52.746;6.304;2023-03-13T09:32:26;12.60;99.90
59556;DHT22;45374;52.746;6.304;2023-03-13T09:34:52;12.60;99.90
59556;DHT22;45374;52.746;6.304;2023-03-13T09:37:17;12.70;99.90
59556;DHT22;45374;52.746;6.304;2023-03-13T09:39:43;12.80;99.90
59556;DHT22;45374;52.746;6.304;2023-03-13T09:42:20;12.80;99.90
59556;DHT22;45374;52.746;6.304;2023-03-13T09:44:52;12.80;99.90
59556;DHT22;45374;52.746;6.304;2023-03-13T09:47:25;12.80;99.90
59556;DHT22;45374;52.746;6.304;2023-03-13T09:50:01;13.00;99.90
59556;DHT22;45374;52.746;6.304;2023-03-13T09:52:32;13.00;99.90
59556;DHT22;45374;52.746;6.304;2023-03-13T09:55:02;13.20;99.90
59556;DHT22;45374;52.746;6.304;2023-03-13T10:00:06;13.50;99.90
59556;DHT22;45374;52.746;6.304;2023-03-13T10:02:37;13.50;99.90
59556;DHT22;45374;52.746;6.304;2023-03-13T10:07:46;13.50;99.90
59556;DHT22;45374;52.746;6.304;2023-03-13T10:10:15;13.50;99.90
59556;DHT22;45374;52.746;6.304;2023-03-13T10:12:51;13.50;99.90
59556;DHT22;45374;52.746;6.304;2023-03-13T10:15:37;13.50;99.90
59556;DHT22;45374;52.746;6.304;2023-03-13T10:18:15;13.50;99.90
59556;DHT22;45374;52.746;6.304;2023-03-13T10:20:42;13.60;99.90
59556;DHT22;45374;52.746;6.304;2023-03-13T10:23:21;13.60;99.90
59556;DHT22;45374;52.746;6.304;2023-03-13T10:25:48;13.60;99.90
59556;DHT22;45374;52.746;6.304;2023-03-13T10:28:16;13.60;99.90
59556;DHT22;45374;52.746;6.304;2023-03-13T10:31:30;13.60;99.90
59556;DHT22;45374;52.746;6.304;2023-03-13T10:34:10;13.70;99.90
59556;DHT22;45374;52.746;6.304;2023-03-13T10:36:45;13.60;99.90
59556;DHT22;45374;52.746;6.304;2023-03-13T10:39:20;13.70;99.90
59556;DHT22;45374;52.746;6.304;2023-03-13T10:41:48;13.70;99.90
59556;DHT22;45374;52.746;6.304;2023-03-13T10:44:20;13.70;99.90
59556;DHT22;45374;52.746;6.304;2023-03-13T10:46:47;13.80;99.90
59556;DHT22;45374;52.746;6.304;2023-03-13T10:49:19;13.80;99.90
59556;DHT22;45374;52.746;6.304;2023-03-13T10:51:48;14.10;99.90
59556;DHT22;45374;52.746;6.304;2023-03-13T10:54:24;14.20;99.90
59556;DHT22;45374;52.746;6.304;2023-03-13T10:59:41;14.30;99.90
59556;DHT22;45374;52.746;6.304;2023-03-13T11:04:54;14.50;99.90
59556;DHT22;45374;52.746;6.304;2023-03-13T11:10:17;14.80;99.90
59556;DHT22;45374;52.746;6.304;2023-03-13T11:12:48;14.80;99.90
59556;DHT22;45374;52.746;6.304;2023-03-13T11:15:19;15.10;99.90
59556;DHT22;45374;52.746;6.304;2023-03-13T11:17:58;15.20;99.90
59556;DHT22;45374;52.746;6.304;2023-03-13T11:20:33;15.30;99.90
59556;DHT22;45374;52.746;6.304;2023-03-13T11:23:20;15.40;99.90
59556;DHT22;45374;52.746;6.304;2023-03-13T11:31:48;15.70;99.90
59556;DHT22;45374;52.746;6.304;2023-03-13T11:34:25;15.70;99.90
59556;DHT22;45374;52.746;6.304;2023-03-13T11:37:13;15.70;99.90
59556;DHT22;45374;52.746;6.304;2023-03-13T11:45:34;15.50;99.90
59556;DHT22;45374;52.746;6.304;2023-03-13T11:51:11;15.70;99.90
59556;DHT22;45374;52.746;6.304;2023-03-13T11:59:25;15.40;99.90
59556;DHT22;45374;52.746;6.304;2023-03-13T12:01:59;15.40;99.90
59556;DHT22;45374;52.746;6.304;2023-03-13T12:04:45;15.60;99.90
59556;DHT22;45374;52.746;6.304;2023-03-13T12:07:22;15.50;99.90
59556;DHT22;45374;52.746;6.304;2023-03-13T12:09:59;15.50;99.90
59556;DHT22;45374;52.746;6.304;2023-03-13T12:12:44;15.40;99.90
59556;DHT22;45374;52.746;6.304;2023-03-13T12:15:27;15.30;99.90
59556;DHT22;45374;52.746;6.304;2023-03-13T12:18:00;15.20;99.90
59556;DHT22;45374;52.746;6.304;2023-03-13T12:20:39;15.40;99.90
59556;DHT22;45374;52.746;6.304;2023-03-13T12:25:36;15.50;99.90
59556;DHT22;45374;52.746;6.304;2023-03-13T12:38:59;15.50;99.90
59556;DHT22;45374;52.746;6.304;2023-03-13T12:41:32;15.50;99.90
59556;DHT22;45374;52.746;6.304;2023-03-13T12:43:59;15.50;99.90
59556;DHT22;45374;52.746;6.304;2023-03-13T12:46:43;15.50;99.90
59556;DHT22;45374;52.746;6.304;2023-03-13T12:49:36;15.30;99.90
59556;DHT22;45374;52.746;6.304;2023-03-13T12:58:21;15.30;99.90
59556;DHT22;45374;52.746;6.304;2023-03-13T13:00:50;15.30;99.90
59556;DHT22;45374;52.746;6.304;2023-03-13T13:03:28;15.40;99.90
59556;DHT22;45374;52.746;6.304;2023-03-13T13:06:04;15.40;99.90
59556;DHT22;45374;52.746;6.304;2023-03-13T13:16:59;15.50;99.90
59556;DHT22;45374;52.746;6.304;2023-03-13T13:32:46;14.90;99.90
59556;DHT22;45374;52.746;6.304;2023-03-13T13:35:20;14.90;99.90
59556;DHT22;45374;52.746;6.304;2023-03-13T13:37:47;15.00;99.90
59556;DHT22;45374;52.746;6.304;2023-03-13T13:40:26;15.20;99.90
59556;DHT22;45374;52.746;6.304;2023-03-13T13:42:57;15.10;99.90
59556;DHT22;45374;52.746;6.304;2023-03-13T13:45:31;15.20;99.90
59556;DHT22;45374;52.746;6.304;2023-03-13T13:48:22;15.30;99.90
59556;DHT22;45374;52.746;6.304;2023-03-13T13:53:59;15.50;99.90
59556;DHT22;45374;52.746;6.304;2023-03-13T13:56:39;15.50;99.90
59556;DHT22;45374;52.746;6.304;2023-03-13T14:01:47;15.40;99.90
59556;DHT22;45374;52.746;6.304;2023-03-13T14:04:28;15.40;99.90
59556;DHT22;45374;52.746;6.304;2023-03-13T14:06:56;15.40;99.90
59556;DHT22;45374;52.746;6.304;2023-03-13T14:09:33;15.30;99.90
59556;DHT22;45374;52.746;6.304;2023-03-13T14:12:00;15.20;99.90
59556;DHT22;45374;52.746;6.304;2023-03-13T14:14:26;15.20;99.90
59556;DHT22;45374;52.746;6.304;2023-03-13T14:16:53;15.20;99.90
59556;DHT22;45374;52.746;6.304;2023-03-13T14:19:38;15.10;99.90
59556;DHT22;45374;52.746;6.304;2023-03-13T14:22:10;15.10;99.90
59556;DHT22;45374;52.746;6.304;2023-03-13T14:24:36;15.00;99.90
59556;DHT22;45374;52.746;6.304;2023-03-13T14:27:14;15.00;99.90
59556;DHT22;45374;52.746;6.304;2023-03-13T14:29:40;15.10;99.90
59556;DHT22;45374;52.746;6.304;2023-03-13T14:32:06;15.10;99.90
59556;DHT22;45374;52.746;6.304;2023-03-13T14:34:32;15.00;99.90
59556;DHT22;45374;52.746;6.304;2023-03-13T14:36:59;14.90;99.90
59556;DHT22;45374;52.746;6.304;2023-03-13T14:42:13;14.90;99.90
59556;DHT22;45374;52.746;6.304;2023-03-13T14:44:39;14.90;99.90
59556;DHT22;45374;52.746;6.304;2023-03-13T14:47:20;15.00;99.90
59556;DHT22;45374;52.746;6.304;2023-03-13T14:49:47;14.90;99.90
59556;DHT22;45374;52.746;6.304;2023-03-13T14:52:19;14.90;99.90
59556;DHT22;45374;52.746;6.304;2023-03-13T14:55:01;15.10;99.90
59556;DHT22;45374;52.746;6.304;2023-03-13T14:57:29;15.10;99.90
59556;DHT22;45374;52.746;6.304;2023-03-13T15:00:48;15.00;99.90
59556;DHT22;45374;52.746;6.304;2023-03-13T15:08:47;15.20;99.90
59556;DHT22;45374;52.746;6.304;2023-03-13T15:13:43;14.90;99.90
59556;DHT22;45374;52.746;6.304;2023-03-13T15:16:17;14.90;99.90
59556;DHT22;45374;52.746;6.304;2023-03-13T15:18:45;14.80;99.90
59556;DHT22;45374;52.746;6.304;2023-03-13T15:23:43;14.70;99.90
59556;DHT22;45374;52.746;6.304;2023-03-13T15:26:11;14.70;99.90
59556;DHT22;45374;52.746;6.304;2023-03-13T15:28:37;14.70;99.90
59556;DHT22;45374;52.746;6.304;2023-03-13T15:31:02;14.60;99.90
59556;DHT22;45374;52.746;6.304;2023-03-13T15:33:29;14.50;99.90
59556;DHT22;45374;52.746;6.304;2023-03-13T15:35:55;14.40;99.90
59556;DHT22;45374;52.746;6.304;2023-03-13T15:38:26;14.40;99.90
59556;DHT22;45374;52.746;6.304;2023-03-13T15:40:52;14.40;99.90
59556;DHT22;45374;52.746;6.304;2023-03-13T15:43:20;14.40;99.90
59556;DHT22;45374;52.746;6.304;2023-03-13T15:45:47;14.40;99.90
59556;DHT22;45374;52.746;6.304;2023-03-13T15:48:17;14.30;99.90
59556;DHT22;45374;52.746;6.304;2023-03-13T15:50:45;14.20;99.90
59556;DHT22;45374;52.746;6.304;2023-03-13T15:53:19;14.20;99.90
59556;DHT22;45374;52.746;6.304;2023-03-13T15:55:49;14.30;99.90
59556;DHT22;45374;52.746;6.304;2023-03-13T15:58:14;14.30;99.90
59556;DHT22;45374;52.746;6.304;2023-03-13T16:00:42;14.20;99.90
59556;DHT22;45374;52.746;6.304;2023-03-13T16:03:16;14.30;99.90
59556;DHT22;45374;52.746;6.304;2023-03-13T16:05:43;14.30;99.90
59556;DHT22;45374;52.746;6.304;2023-03-13T16:08:16;14.20;99.90
59556;DHT22;45374;52.746;6.304;2023-03-13T16:10:43;14.20;99.90
59556;DHT22;45374;52.746;6.304;2023-03-13T16:13:08;14.20;99.90
59556;DHT22;45374;52.746;6.304;2023-03-13T16:15:35;14.10;99.90
59556;DHT22;45374;52.746;6.304;2023-03-13T16:18:03;14.10;99.90
59556;DHT22;45374;52.746;6.304;2023-03-13T16:20:31;14.00;99.90
59556;DHT22;45374;52.746;6.304;2023-03-13T16:22:56;14.00;99.90
59556;DHT22;45374;52.746;6.304;2023-03-13T16:25:23;13.90;99.90
59556;DHT22;45374;52.746;6.304;2023-03-13T16:27:49;14.00;99.90
59556;DHT22;45374;52.746;6.304;2023-03-13T16:30:22;13.90;99.90
59556;DHT22;45374;52.746;6.304;2023-03-13T16:32:48;13.90;99.90
59556;DHT22;45374;52.746;6.304;2023-03-13T16:35:15;13.90;99.90
59556;DHT22;45374;52.746;6.304;2023-03-13T16:37:42;13.80;99.90
59556;DHT22;45374;52.746;6.304;2023-03-13T16:40:18;13.80;99.90
59556;DHT22;45374;52.746;6.304;2023-03-13T16:42:44;13.70;99.90
59556;DHT22;45374;52.746;6.304;2023-03-13T16:45:10;13.60;99.90
59556;DHT22;45374;52.746;6.304;2023-03-13T16:47:36;13.50;99.90
59556;DHT22;45374;52.746;6.304;2023-03-13T16:50:18;13.40;99.90
59556;DHT22;45374;52.746;6.304;2023-03-13T16:52:45;13.30;99.90
59556;DHT22;45374;52.746;6.304;2023-03-13T16:55:10;13.30;99.90
59556;DHT22;45374;52.746;6.304;2023-03-13T16:57:36;13.20;99.90
59556;DHT22;45374;52.746;6.304;2023-03-13T17:00:02;13.20;99.90
59556;DHT22;45374;52.746;6.304;2023-03-13T17:02:34;13.00;99.90
59556;DHT22;45374;52.746;6.304;2023-03-13T17:05:03;12.90;99.90
59556;DHT22;45374;52.746;6.304;2023-03-13T17:07:29;12.90;99.90
59556;DHT22;45374;52.746;6.304;2023-03-13T17:09:55;12.90;99.90
59556;DHT22;45374;52.746;6.304;2023-03-13T17:12:20;12.70;99.90
59556;DHT22;45374;52.746;6.304;2023-03-13T17:14:46;12.80;99.90
59556;DHT22;45374;52.746;6.304;2023-03-13T17:17:14;12.70;99.90
59556;DHT22;45374;52.746;6.304;2023-03-13T17:19:40;12.70;99.90
59556;DHT22;45374;52.746;6.304;2023-03-13T17:22:06;12.70;99.90
59556;DHT22;45374;52.746;6.304;2023-03-13T17:24:32;12.60;99.90
59556;DHT22;45374;52.746;6.304;2023-03-13T17:26:57;12.50;99.90
59556;DHT22;45374;52.746;6.304;2023-03-13T17:29:23;12.40;99.90
59556;DHT22;45374;52.746;6.304;2023-03-13T17:31:49;12.30;99.90
59556;DHT22;45374;52.746;6.304;2023-03-13T17:34:14;12.30;99.90
59556;DHT22;45374;52.746;6.304;2023-03-13T17:36:45;12.20;99.90